Flight Track Log - Related Links

Times and Time Zones

All times are in EDT time to prevent confusion due to time zone crossing. See the ASQ6151 flight status page for this flight to view local times or setup timezone preferences in your user account.

Time Position Orientation Groundspeed Altitude Reporting Facility
EDT Latitude Longitude Course Direction KTS MPH feet Rate Location/Type
Sat 06:28:40 42.7297 -73.8081 200° South 151 174 1,200  Level Boston Center
Sat 06:29:47 42.7064 -73.8556 236° Southwest 204 235 3,800 2,177 Climbing Boston Center
Sat 06:30:44 42.7408 -73.9242 304° West 239 275 5,700 2,308 Climbing Boston Center
Sat 06:31:00 42.4753 -73.9197 195° South  Level FlightAware Approximate
Sat 06:31:44 42.7833 -74.0131 303° West 261 300 8,300  Level Boston Center
Sat 06:32:00 42.3838 -73.9540 195° South  Level FlightAware Approximate
Sat 06:32:44 42.8219 -74.0875 305° West 273 314 10,400  Level Boston Center
Sat 06:33:00 42.2928 -73.9912 198° South  Level FlightAware Approximate
Sat 06:33:44 42.8264 -74.2067 273° West 279 321 12,100  Level Boston Center
Sat 06:34:00 42.2027 -74.0320 200° South  Level FlightAware Approximate
Sat 06:34:44 42.7769 -74.3069 236° Southwest 292 336 13,500  Level Boston Center
Sat 06:35:44 42.7103 -74.4294 234° Southwest 350 403 15,100 1,550 Climbing Boston Center
Sat 06:36:44 42.6203 -74.4489 189° South 343 395 16,600 1,350 Climbing Boston Center
Sat 06:37:44 42.5319 -74.3644 145° Southeast 315 362 17,800 1,350 Climbing Boston Center
Sat 06:38:44 42.4522 -74.2747 140° Southeast 345 397 19,300 1,500 Climbing Boston Center
Sat 06:39:44 42.3725 -74.1853 140° Southeast 359 413 20,800 1,500 Climbing Boston Center
Sat 06:40:44 42.2883 -74.0958 142° Southeast 377 434 22,300 1,550 Climbing Boston Center
Sat 06:41:44 42.1892 -74.0372 156° South 382 440 23,900 1,500 Climbing Boston Center
Sat 06:42:44 42.0744 -74.0456 183° South 382 440 25,300 1,500 Climbing Boston Center
Sat 06:43:44 41.9575 -74.0508 182° South 401 461 26,900 1,460 Climbing Boston Center
Sat 06:45:53 41.7261 -74.1314 195° South 429 494 29,900 984 Climbing New York Center
Sat 06:46:53 41.6139 -74.1922 202° Southwest 424 488 30,000 50 Climbing New York Center
Sat 06:47:53 41.5017 -74.2583 204° Southwest 433 498 30,000  Level New York Center
Sat 06:48:53 41.3808 -74.3267 203° Southwest 455 524 30,000 -100 Level New York Center
Sat 06:49:53 41.2667 -74.3869 202° Southwest 477 549 29,800 -700 Descending New York Center
Sat 06:50:53 41.1458 -74.4522 202° Southwest 482 555 28,600 -942 Descending New York Center
Sat 06:51:54 41.0314 -74.5203 204° Southwest 476 548 27,900 -293 Descending New York Center
Sat 06:52:56 40.9206 -74.5936 207° Southwest 455 524 28,000 50 Climbing New York Center
Sat 06:53:53 40.8472 -74.7294 235° Southwest 432 497 28,000  Level New York Center
Sat 06:54:56 40.7819 -74.8736 239° Southwest 450 518 28,000  Level New York Center
Sat 06:55:55 40.7164 -75.0203 240° Southwest 460 529 28,000 -462 Level New York Center
Sat 06:56:53 40.6506 -75.1667 239° Southwest 470 541 27,100 -1,068 Descending New York Center
Sat 06:57:53 40.5828 -75.3100 238° Southwest 470 541 25,900 -1,250 Descending New York Center
Sat 06:58:53 40.5144 -75.4583 239° Southwest 475 547 24,600 -1,230 Descending New York Center
Sat 06:59:55 40.4483 -75.5983 238° Southwest 475 547 23,400 -1,366 Descending New York Center
Sat 07:00:56 40.3864 -75.7356 239° Southwest 459 528 21,800 -1,563 Descending New York Center
Sat 07:01:54 40.3222 -75.8700 238° Southwest 447 514 20,300 -915 Descending New York Center
Sat 07:02:54 40.2492 -76.0169 237° Southwest 447 514 20,000 -298 Descending New York Center
Sat 07:03:55 40.1867 -76.1508 239° Southwest 437 503 19,700 -756 Descending New York Center
Sat 07:04:53 40.1267 -76.2792 239° Southwest 430 495 18,500 -950 Descending New York Center
Sat 07:05:55 40.0733 -76.3942 239° Southwest 419 482 17,800 -1,050 Descending New York Center
Sat 07:06:53 40.0103 -76.5303 239° Southwest 411 473 16,400 -1,322 Descending New York Center
Sat 07:07:53 39.9589 -76.6425 239° Southwest 406 467 15,200 -683 Descending New York Center
Sat 07:08:56 39.8961 -76.7725 238° Southwest 406 467 15,000 -100 Descending New York Center
Sat 07:09:53 39.8447 -76.8817 239° Southwest 401 461 15,000 -1,096 Level New York Center
Sat 07:11:00 39.7833 -76.9928 270° West  Level FlightAware Approximate
Sat 07:12:13 39.7333 -77.1167 270° West 312 359 11,400  Level Potomac TRACON
Sat 07:14:13 39.6500 -77.3167 242° Southwest 308 354 8,500 -1,075 Descending Potomac TRACON
Sat 07:16:13 39.5333 -77.4500 221° Southwest 276 318 7,100 -700 Descending Potomac TRACON
Sat 07:17:13 39.4500 -77.4500 180° South 262 302 6,400 -850 Descending Potomac TRACON
Sat 07:18:13 39.3833 -77.4500 180° South 229 264 5,400 -467 Descending Potomac TRACON
Sat 07:20:13 39.2500 -77.4500 180° South 242 278 5,000 -233 Descending Potomac TRACON
Sat 07:21:13 39.1833 -77.4500 180° South 233 268 4,700 -737 Descending Potomac TRACON
Sat 07:22:07 39.1333 -77.4500 180° South 209 241 3,600 -1,050 Descending Potomac TRACON
Sat 07:23:13 39.0833 -77.4500 180° South 166 191 2,600 -905 Descending Potomac TRACON
Sat 07:24:13 39.0333 -77.4667 195° South 172 198 1,700 -850 Descending Potomac TRACON
Sat 07:25:13 39.0000 -77.4667 180° South 138 159 900 -800 Descending Potomac TRACON

Login

Don't have an account? Register now (free) for customized features, flight alerts, and more!